createdAt,value
2017-05-06T00:01:02.263Z,101800
2017-05-06T00:03:31.246Z,101788
2017-05-06T00:06:00.214Z,101786
2017-05-06T00:08:29.945Z,101792
2017-05-06T00:10:58.931Z,101794
2017-05-06T00:13:28.652Z,101782
2017-05-06T00:15:57.716Z,101787
2017-05-06T00:18:26.742Z,101778
2017-05-06T00:20:55.626Z,101780
2017-05-06T00:23:24.743Z,101776
2017-05-06T00:25:53.787Z,101779
2017-05-06T00:28:22.833Z,101775
2017-05-06T00:30:51.886Z,101773
2017-05-06T00:33:20.915Z,101769
2017-05-06T00:35:49.949Z,101757
2017-05-06T00:38:19.017Z,101762
2017-05-06T00:40:48.064Z,101766
2017-05-06T00:43:17.089Z,101761
2017-05-06T00:45:46.153Z,101752
2017-05-06T00:48:15.177Z,101762
2017-05-06T00:50:44.217Z,101759
2017-05-06T00:53:13.276Z,101759
2017-05-06T00:55:42.324Z,101756
2017-05-06T00:58:11.349Z,101747
2017-05-06T01:00:41.141Z,101753
2017-05-06T01:03:10.185Z,101753
2017-05-06T01:05:39.214Z,101757
2017-05-06T01:08:08.262Z,101742
2017-05-06T01:10:37.293Z,101748
2017-05-06T01:13:06.317Z,101740
2017-05-06T01:15:35.385Z,101746
2017-05-06T01:18:04.428Z,101736
2017-05-06T01:20:33.477Z,101737
2017-05-06T01:23:02.556Z,101735
2017-05-06T01:25:31.595Z,101732
2017-05-06T01:28:01.381Z,101729
2017-05-06T01:30:30.434Z,101732
2017-05-06T01:32:59.476Z,101731
2017-05-06T01:35:28.456Z,101734
2017-05-06T01:37:57.509Z,101727
2017-05-06T01:43:05.341Z,101726
2017-05-06T01:45:34.306Z,101728
2017-05-06T01:48:04.005Z,101722
2017-05-06T01:50:33.621Z,101718
2017-05-06T01:53:03.329Z,101717
2017-05-06T01:55:33.056Z,101710
2017-05-06T01:58:02.066Z,101707
2017-05-06T02:00:31.033Z,101699
2017-05-06T02:03:00.759Z,101692
2017-05-06T02:05:29.776Z,101690
2017-05-06T02:07:59.165Z,101684
2017-05-06T02:10:28.148Z,101689
2017-05-06T02:12:57.157Z,101682
2017-05-06T02:15:26.141Z,101680
2017-05-06T02:17:55.105Z,101675
2017-05-06T02:20:24.118Z,101669
2017-05-06T02:22:53.103Z,101664
2017-05-06T02:25:22.810Z,101675
2017-05-06T02:27:52.967Z,101669
2017-05-06T02:30:21.947Z,101667
2017-05-06T02:32:50.929Z,101664
2017-05-06T02:35:20.657Z,101661
2017-05-06T02:37:49.627Z,101660
2017-05-06T02:40:19.330Z,101661
2017-05-06T02:42:49.065Z,101658
2017-05-06T02:45:18.047Z,101659
2017-05-06T02:47:47.754Z,101653
2017-05-06T02:50:16.783Z,101654
2017-05-06T02:52:45.782Z,101650
2017-05-06T02:55:14.761Z,101660
2017-05-06T02:57:43.755Z,101657
2017-05-06T03:00:12.739Z,101663
2017-05-06T03:02:41.724Z,101660
2017-05-06T03:05:10.731Z,101666
2017-05-06T03:07:39.711Z,101664
2017-05-06T03:10:09.430Z,101657
2017-05-06T03:12:38.440Z,101658
2017-05-06T03:15:07.423Z,101653
2017-05-06T03:17:36.405Z,101652
2017-05-06T03:20:05.397Z,101653
2017-05-06T03:22:35.124Z,101651
2017-05-06T03:25:04.093Z,101649
2017-05-06T03:27:33.840Z,101650
2017-05-06T03:30:02.805Z,101651
2017-05-06T03:32:31.790Z,101656
2017-05-06T03:35:01.543Z,101653
2017-05-06T03:37:30.516Z,101651
2017-05-06T03:39:59.485Z,101642
2017-05-06T03:42:29.241Z,101629
2017-05-06T03:44:58.223Z,101639
2017-05-06T03:47:27.212Z,101637
2017-05-06T03:49:56.212Z,101633
2017-05-06T03:52:25.181Z,101640
2017-05-06T03:54:54.904Z,101645
2017-05-06T03:57:24.308Z,101653
2017-05-06T03:59:53.277Z,101638
2017-05-06T04:02:22.998Z,101645
2017-05-06T04:04:52.729Z,101627
2017-05-06T04:07:21.698Z,101627
2017-05-06T04:09:51.418Z,101627
2017-05-06T04:12:20.420Z,101629
2017-05-06T04:14:49.384Z,101636
2017-05-06T04:17:18.362Z,101636
2017-05-06T04:19:47.297Z,101633
2017-05-06T04:22:16.215Z,101624
2017-05-06T04:24:45.143Z,101633
2017-05-06T04:27:14.547Z,101624
2017-05-06T04:29:43.474Z,101632
2017-05-06T04:32:12.402Z,101619
2017-05-06T04:34:41.349Z,101626
2017-05-06T04:37:11.015Z,101632
2017-05-06T04:39:39.947Z,101623
2017-05-06T04:42:09.627Z,101617
2017-05-06T04:44:38.555Z,101606
2017-05-06T04:47:08.219Z,101617
2017-05-06T04:49:37.157Z,101623
2017-05-06T04:52:06.809Z,101623
2017-05-06T04:54:35.735Z,101630
2017-05-06T04:57:04.665Z,101622
2017-05-06T04:59:33.575Z,101628
2017-05-06T05:02:02.511Z,101622
2017-05-06T05:04:31.472Z,101612
2017-05-06T05:07:00.405Z,101609
2017-05-06T05:09:30.072Z,101622
2017-05-06T05:11:59.008Z,101616
2017-05-06T05:14:28.662Z,101622
2017-05-06T05:16:57.596Z,101625
2017-05-06T05:19:26.774Z,101618
2017-05-06T05:21:55.701Z,101625
2017-05-06T05:24:25.348Z,101616
2017-05-06T05:26:54.285Z,101618
2017-05-06T05:29:23.197Z,101615
2017-05-06T05:31:52.870Z,101617
2017-05-06T05:34:21.805Z,101622
2017-05-06T05:36:50.722Z,101615
2017-05-06T05:39:19.663Z,101618
2017-05-06T05:41:48.594Z,101617
2017-05-06T05:44:17.535Z,101628
2017-05-06T05:46:46.450Z,101619
2017-05-06T05:49:15.380Z,101621
2017-05-06T05:51:44.289Z,101614
2017-05-06T05:54:13.941Z,101623
2017-05-06T05:56:42.873Z,101616
2017-05-06T05:59:13.081Z,101616
2017-05-06T06:01:42.012Z,101619
2017-05-06T06:04:11.702Z,101628
2017-05-06T06:06:40.635Z,101626
2017-05-06T06:09:09.564Z,101631
2017-05-06T06:11:38.523Z,101629
2017-05-06T06:14:07.433Z,101629
2017-05-06T06:16:36.352Z,101623
2017-05-06T06:19:05.315Z,101627
2017-05-06T06:21:34.230Z,101616
2017-05-06T06:24:03.160Z,101612
2017-05-06T06:26:32.849Z,101623
2017-05-06T06:29:01.761Z,101617
2017-05-06T06:31:31.427Z,101616
2017-05-06T06:34:00.387Z,101608
2017-05-06T06:36:29.316Z,101605
2017-05-06T06:38:58.243Z,101606
2017-05-06T06:41:27.935Z,101614
2017-05-06T06:43:56.863Z,101616
2017-05-06T06:46:25.796Z,101603
2017-05-06T06:48:54.729Z,101614
2017-05-06T06:51:24.394Z,101606
2017-05-06T06:53:53.303Z,101598
2017-05-06T06:56:22.273Z,101599
2017-05-06T06:58:51.203Z,101598
2017-05-06T07:01:20.116Z,101599
2017-05-06T07:03:49.805Z,101593
2017-05-06T07:06:18.715Z,101591
2017-05-06T07:08:48.374Z,101595
2017-05-06T07:11:17.348Z,101591
2017-05-06T07:13:46.275Z,101588
2017-05-06T07:16:15.203Z,101592
2017-05-06T07:18:44.895Z,101590
2017-05-06T07:21:13.816Z,101581
2017-05-06T07:23:43.465Z,101579
2017-05-06T07:26:12.515Z,101568
2017-05-06T07:28:42.183Z,101562
2017-05-06T07:31:11.104Z,101553
2017-05-06T07:33:40.034Z,101560
2017-05-06T07:36:08.958Z,101570
2017-05-06T07:38:37.861Z,101563
2017-05-06T07:41:06.808Z,101567
2017-05-06T07:43:35.727Z,101571
2017-05-06T07:46:04.624Z,101564
2017-05-06T07:48:33.557Z,101560
2017-05-06T07:51:02.481Z,101555
2017-05-06T07:53:31.384Z,101550
2017-05-06T07:56:01.337Z,101556
2017-05-06T07:58:30.259Z,101548
2017-05-06T08:00:59.924Z,101545
2017-05-06T08:03:28.861Z,101535
2017-05-06T08:05:58.525Z,101540
2017-05-06T08:08:27.434Z,101531
2017-05-06T08:10:56.372Z,101534
2017-05-06T08:13:25.306Z,101540
2017-05-06T08:15:54.227Z,101536
2017-05-06T08:18:23.901Z,101545
2017-05-06T08:20:52.809Z,101542
2017-05-06T08:23:21.713Z,101539
2017-05-06T08:25:51.403Z,101545
2017-05-06T08:28:20.306Z,101548
2017-05-06T08:30:49.282Z,101544
2017-05-06T08:33:18.212Z,101552
2017-05-06T08:35:47.882Z,101540
2017-05-06T08:38:16.789Z,101549
2017-05-06T08:40:45.721Z,101542
2017-05-06T08:43:14.647Z,101546
2017-05-06T08:45:43.573Z,101551
2017-05-06T08:48:12.523Z,101546
2017-05-06T08:50:41.434Z,101552
2017-05-06T08:53:10.367Z,101556
2017-05-06T08:55:40.050Z,101556
2017-05-06T08:58:08.948Z,101551
2017-05-06T09:00:37.850Z,101553
2017-05-06T09:03:07.551Z,101551
2017-05-06T09:05:36.459Z,101552
2017-05-06T09:08:06.127Z,101549
2017-05-06T09:10:35.079Z,101547
2017-05-06T09:13:03.988Z,101553
2017-05-06T09:15:32.893Z,101550
2017-05-06T09:18:01.830Z,101554
2017-05-06T09:20:31.481Z,101543
2017-05-06T09:23:00.384Z,101540
2017-05-06T09:25:29.336Z,101548
2017-05-06T09:27:58.976Z,101548
2017-05-06T09:30:27.900Z,101549
2017-05-06T09:32:56.843Z,101540
2017-05-06T09:35:25.752Z,101538
2017-05-06T09:37:54.657Z,101529
2017-05-06T09:40:23.590Z,101523
2017-05-06T09:42:52.511Z,101525
2017-05-06T09:45:21.439Z,101534
2017-05-06T09:47:50.388Z,101527
2017-05-06T09:50:19.301Z,101517
2017-05-06T09:52:48.210Z,101524
2017-05-06T09:55:17.160Z,101520
2017-05-06T09:57:46.814Z,101517
2017-05-06T10:00:15.740Z,101503
2017-05-06T10:02:44.691Z,101509
2017-05-06T10:05:13.619Z,101502
2017-05-06T10:07:42.543Z,101498
2017-05-06T10:10:12.217Z,101494
2017-05-06T10:12:41.140Z,101495
2017-05-06T10:15:10.788Z,101494
2017-05-06T10:17:39.735Z,101490
2017-05-06T10:20:09.413Z,101481
2017-05-06T10:22:38.316Z,101478
2017-05-06T10:25:07.246Z,101475
2017-05-06T10:27:36.156Z,101474
2017-05-06T10:30:05.082Z,101470
2017-05-06T10:32:34.014Z,101457
2017-05-06T10:35:03.678Z,101456
2017-05-06T10:37:32.603Z,101456
2017-05-06T10:40:02.295Z,101456
2017-05-06T10:42:31.196Z,101457
2017-05-06T10:45:00.120Z,101460
2017-05-06T10:47:29.054Z,101451
2017-05-06T10:50:05.078Z,101444
2017-05-06T10:52:34.005Z,101439
2017-05-06T10:55:02.913Z,101449
2017-05-06T10:57:32.344Z,101445
2017-05-06T11:00:02.045Z,101442
2017-05-06T11:02:31.698Z,101436
2017-05-06T11:05:00.600Z,101438
2017-05-06T11:07:29.537Z,101433
2017-05-06T11:09:59.180Z,101428
2017-05-06T11:12:28.108Z,101422
2017-05-06T11:14:57.065Z,101418
2017-05-06T11:17:25.988Z,101427
2017-05-06T11:19:54.919Z,101417
2017-05-06T11:22:24.602Z,101430
2017-05-06T11:24:53.530Z,101430
2017-05-06T11:27:22.463Z,101428
2017-05-06T11:29:51.426Z,101438
2017-05-06T11:32:20.362Z,101435
2017-05-06T11:34:49.292Z,101432
2017-05-06T11:37:18.968Z,101425
2017-05-06T11:39:47.891Z,101428
2017-05-06T11:42:17.544Z,101427
2017-05-06T11:44:46.488Z,101426
2017-05-06T11:47:15.393Z,101423
2017-05-06T11:49:45.063Z,101421
2017-05-06T11:52:14.019Z,101419
2017-05-06T11:54:42.924Z,101413
2017-05-06T11:57:11.838Z,101412
2017-05-06T11:59:40.788Z,101409
2017-05-06T12:02:09.723Z,101403
2017-05-06T12:04:38.630Z,101411
2017-05-06T12:07:07.581Z,101394
2017-05-06T12:09:36.503Z,101398
2017-05-06T12:12:05.416Z,101384
2017-05-06T12:14:34.367Z,101376
2017-05-06T12:17:03.278Z,101369
2017-05-06T12:19:32.205Z,101368
2017-05-06T12:22:02.203Z,101366
2017-05-06T12:24:31.105Z,101363
2017-05-06T12:27:01.642Z,101365
2017-05-06T12:29:31.335Z,101360
2017-05-06T12:32:00.259Z,101351
2017-05-06T12:34:29.187Z,101351
2017-05-06T12:36:58.136Z,101344
2017-05-06T12:39:27.795Z,101345
2017-05-06T12:41:56.702Z,101346
2017-05-06T12:44:25.646Z,101344
2017-05-06T12:46:54.549Z,101341
2017-05-06T12:49:23.453Z,101337
2017-05-06T12:51:52.385Z,101320
2017-05-06T12:54:21.292Z,101325
2017-05-06T12:56:50.956Z,101318
2017-05-06T12:59:19.921Z,101326
2017-05-06T13:01:48.843Z,101323
2017-05-06T13:04:17.763Z,101311
2017-05-06T13:06:46.707Z,101323
2017-05-06T13:09:15.612Z,101314
2017-05-06T13:11:45.447Z,101313
2017-05-06T13:14:14.394Z,101302
2017-05-06T13:16:43.300Z,101303
2017-05-06T13:19:12.204Z,101305
2017-05-06T13:21:41.258Z,101305
2017-05-06T13:24:10.921Z,101303
2017-05-06T13:26:39.825Z,101307
2017-05-06T13:29:08.771Z,101308
2017-05-06T13:31:37.676Z,101306
2017-05-06T13:34:06.583Z,101299
2017-05-06T13:36:35.536Z,101292
2017-05-06T13:39:04.444Z,101299
2017-05-06T13:41:33.367Z,101294
2017-05-06T13:44:02.319Z,101294
2017-05-06T13:46:31.243Z,101291
2017-05-06T13:49:00.158Z,101283
2017-05-06T13:51:29.121Z,101278
2017-05-06T13:53:58.044Z,101266
2017-05-06T13:56:27.008Z,101272
2017-05-06T13:58:55.972Z,101261
2017-05-06T14:01:24.888Z,101266
2017-05-06T14:03:53.840Z,101261
2017-05-06T14:06:23.538Z,101258
2017-05-06T14:08:52.467Z,101246
2017-05-06T14:11:22.137Z,101240
2017-05-06T14:13:51.091Z,101246
2017-05-06T14:16:20.010Z,101242
2017-05-06T14:18:48.935Z,101232
2017-05-06T14:21:17.895Z,101230
2017-05-06T14:23:46.810Z,101225
2017-05-06T14:26:15.739Z,101225
2017-05-06T14:28:44.676Z,101221
2017-05-06T14:31:13.584Z,101216
2017-05-06T14:33:42.494Z,101215
2017-05-06T14:36:11.448Z,101211
2017-05-06T14:38:40.365Z,101217
2017-05-06T14:41:09.274Z,101197
2017-05-06T14:43:38.969Z,101195
2017-05-06T14:46:07.885Z,101198
2017-05-06T14:48:37.537Z,101192
2017-05-06T14:51:06.516Z,101192
2017-05-06T14:53:35.426Z,101188
2017-05-06T14:56:04.355Z,101186
2017-05-06T14:58:33.308Z,101185
2017-05-06T15:01:02.220Z,101192
2017-05-06T15:03:31.146Z,101186
2017-05-06T15:06:00.847Z,101190
2017-05-06T15:08:30.244Z,101184
2017-05-06T15:10:59.152Z,101177
2017-05-06T15:13:28.837Z,101177
2017-05-06T15:15:57.763Z,101182
2017-05-06T15:18:27.408Z,101191
2017-05-06T15:20:56.358Z,101190
2017-05-06T15:23:26.028Z,101193
2017-05-06T15:25:54.945Z,101179
2017-05-06T15:28:24.647Z,101178
2017-05-06T15:30:53.561Z,101184
2017-05-06T15:33:23.209Z,101182
2017-05-06T15:35:52.141Z,101171
2017-05-06T15:38:21.116Z,101172
2017-05-06T15:40:50.042Z,101169
2017-05-06T15:43:19.721Z,101162
2017-05-06T15:45:48.630Z,101150
2017-05-06T15:48:17.550Z,101154
2017-05-06T15:50:47.254Z,101152
2017-05-06T15:53:16.926Z,101157
2017-05-06T15:55:45.850Z,101156
2017-05-06T15:58:14.788Z,101155
2017-05-06T16:00:43.711Z,101166
2017-05-06T16:03:12.656Z,101153
2017-05-06T16:05:42.337Z,101158
2017-05-06T16:08:11.260Z,101154
2017-05-06T16:10:40.223Z,101154
2017-05-06T16:13:09.184Z,101164
2017-05-06T16:15:38.093Z,101153
2017-05-06T16:18:07.090Z,101153
2017-05-06T16:20:36.023Z,101147
2017-05-06T16:23:04.946Z,101147
2017-05-06T16:25:33.857Z,101138
2017-05-06T16:28:02.804Z,101139
2017-05-06T16:30:31.719Z,101143
2017-05-06T16:33:00.659Z,101142
2017-05-06T16:35:29.609Z,101131
2017-05-06T16:37:58.566Z,101130
2017-05-06T16:40:28.221Z,101132
2017-05-06T16:42:57.184Z,101129
2017-05-06T16:45:26.093Z,101125
2017-05-06T16:47:55.083Z,101135
2017-05-06T16:50:24.045Z,101145
2017-05-06T16:52:53.811Z,101136
2017-05-06T16:55:22.752Z,101139
2017-05-06T16:57:52.435Z,101138
2017-05-06T17:00:21.411Z,101140
2017-05-06T17:02:50.330Z,101134
2017-05-06T17:05:19.295Z,101132
2017-05-06T17:07:48.205Z,101131
2017-05-06T17:10:17.152Z,101132
2017-05-06T17:12:46.150Z,101124
2017-05-06T17:15:15.077Z,101122
2017-05-06T17:17:44.009Z,101128
2017-05-06T17:20:12.953Z,101119
2017-05-06T17:22:41.865Z,101125
2017-05-06T17:25:10.795Z,101123
2017-05-06T17:27:39.728Z,101117
2017-05-06T17:30:08.700Z,101110
2017-05-06T17:32:37.631Z,101105
2017-05-06T17:35:06.564Z,101114
2017-05-06T17:37:35.503Z,101121
2017-05-06T17:40:04.409Z,101121
2017-05-06T17:42:33.356Z,101125
2017-05-06T17:45:02.270Z,101114
2017-05-06T17:47:31.200Z,101116
2017-05-06T17:50:00.899Z,101114
2017-05-06T17:52:29.827Z,101120
2017-05-06T17:54:58.758Z,101114
2017-05-06T17:57:27.705Z,101108
2017-05-06T17:59:56.621Z,101106
2017-05-06T18:02:25.547Z,101116
2017-05-06T18:04:54.503Z,101107
2017-05-06T18:07:23.428Z,101106
2017-05-06T18:09:52.365Z,101116
2017-05-06T18:12:22.041Z,101123
2017-05-06T18:14:50.956Z,101123
2017-05-06T18:17:20.627Z,101124
2017-05-06T18:19:49.573Z,101115
2017-05-06T18:22:18.484Z,101120
2017-05-06T18:24:47.414Z,101120
2017-05-06T18:27:16.373Z,101120
2017-05-06T18:29:45.287Z,101128
2017-05-06T18:32:14.220Z,101131
2017-05-06T18:34:43.893Z,101118
2017-05-06T18:37:12.813Z,101124
2017-05-06T18:39:42.472Z,101122
2017-05-06T18:42:11.427Z,101135
2017-05-06T18:44:40.383Z,101117
2017-05-06T18:47:09.318Z,101121
2017-05-06T18:49:38.998Z,101121
2017-05-06T18:52:07.946Z,101117
2017-05-06T18:54:36.881Z,101120
2017-05-06T18:57:05.851Z,101117
2017-05-06T18:59:34.785Z,101132
2017-05-06T19:02:04.432Z,101131
2017-05-06T19:04:33.386Z,101131
2017-05-06T19:07:03.109Z,101137
2017-05-06T19:09:32.763Z,101147
2017-05-06T19:12:01.717Z,101135
2017-05-06T19:14:30.671Z,101128
2017-05-06T19:16:59.593Z,101133
2017-05-06T19:19:28.551Z,101136
2017-05-06T19:21:57.510Z,101135
2017-05-06T19:24:26.422Z,101141
2017-05-06T19:26:55.727Z,101140
2017-05-06T19:29:24.669Z,101137
2017-05-06T19:31:53.593Z,101139
2017-05-06T19:34:22.579Z,101141
2017-05-06T19:36:51.508Z,101136
2017-05-06T19:39:20.484Z,101144
2017-05-06T19:41:49.446Z,101141
2017-05-06T19:44:18.378Z,101135
2017-05-06T19:46:47.342Z,101140
2017-05-06T19:49:16.306Z,101138
2017-05-06T19:51:45.227Z,101138
2017-05-06T19:54:14.188Z,101149
2017-05-06T19:56:43.135Z,101146
2017-05-06T19:59:12.087Z,101142
2017-05-06T20:01:41.012Z,101139
2017-05-06T20:04:09.962Z,101146
2017-05-06T20:06:38.899Z,101140
2017-05-06T20:09:07.845Z,101138
2017-05-06T20:11:36.813Z,101153
2017-05-06T20:14:06.775Z,101141
2017-05-06T20:16:35.711Z,101145
2017-05-06T20:19:04.673Z,101151
2017-05-06T20:21:33.603Z,101146
2017-05-06T20:24:02.517Z,101155
2017-05-06T20:26:32.198Z,101151
2017-05-06T20:29:01.124Z,101149
2017-05-06T20:31:30.040Z,101142
2017-05-06T20:33:58.976Z,101150
2017-05-06T20:36:27.891Z,101153
2017-05-06T20:38:57.544Z,101152
2017-05-06T20:41:26.511Z,101144
2017-05-06T20:43:55.445Z,101149
2017-05-06T20:46:24.372Z,101137
2017-05-06T20:48:54.051Z,101143
2017-05-06T20:51:22.983Z,101141
2017-05-06T20:53:52.683Z,101145
2017-05-06T20:56:22.369Z,101149
2017-05-06T20:58:51.299Z,101145
2017-05-06T21:01:20.972Z,101141
2017-05-06T21:03:49.923Z,101140
2017-05-06T21:06:18.855Z,101144
2017-05-06T21:08:47.796Z,101140
2017-05-06T21:11:16.750Z,101133
2017-05-06T21:13:45.660Z,101129
2017-05-06T21:16:15.335Z,101132
2017-05-06T21:18:44.275Z,101128
2017-05-06T21:21:13.207Z,101133
2017-05-06T21:23:42.137Z,101127
2017-05-06T21:26:11.077Z,101120
2017-05-06T21:28:40.013Z,101122
2017-05-06T21:31:08.921Z,101126
2017-05-06T21:33:38.636Z,101124
2017-05-06T21:36:07.598Z,101119
2017-05-06T21:38:36.511Z,101115
2017-05-06T21:41:06.197Z,101115
2017-05-06T21:43:35.109Z,101112
2017-05-06T21:46:04.030Z,101114
2017-05-06T21:48:32.968Z,101108
2017-05-06T21:51:01.896Z,101101
2017-05-06T21:53:31.580Z,101112
2017-05-06T21:56:00.542Z,101094
2017-05-06T21:58:29.466Z,101102
2017-05-06T22:00:58.390Z,101101
2017-05-06T22:03:27.335Z,101104
2017-05-06T22:05:56.268Z,101107
2017-05-06T22:08:25.921Z,101106
2017-05-06T22:10:54.867Z,101105
2017-05-06T22:13:24.519Z,101105
2017-05-06T22:15:53.450Z,101107
2017-05-06T22:18:22.405Z,101099
2017-05-06T22:20:51.345Z,101100
2017-05-06T22:23:20.268Z,101100
2017-05-06T22:25:49.210Z,101101
2017-05-06T22:28:18.167Z,101096
2017-05-06T22:30:47.104Z,101100
2017-05-06T22:33:16.060Z,101103
2017-05-06T22:35:44.978Z,101107
2017-05-06T22:38:13.907Z,101106
2017-05-06T22:40:43.590Z,101100
2017-05-06T22:43:12.509Z,101106
2017-05-06T22:45:42.166Z,101112
2017-05-06T22:48:11.126Z,101117
2017-05-06T22:50:40.055Z,101120
2017-05-06T22:53:08.969Z,101114
2017-05-06T22:55:37.917Z,101114
2017-05-06T22:58:06.829Z,101111
2017-05-06T23:00:35.742Z,101113
2017-05-06T23:03:04.692Z,101121
2017-05-06T23:05:33.602Z,101117
2017-05-06T23:08:02.531Z,101119
2017-05-06T23:10:31.490Z,101114
2017-05-06T23:13:00.402Z,101115
2017-05-06T23:15:29.317Z,101113
2017-05-06T23:17:59.002Z,101120
2017-05-06T23:20:27.916Z,101119
2017-05-06T23:22:56.829Z,101132
2017-05-06T23:25:25.765Z,101135
2017-05-06T23:27:54.701Z,101129
2017-05-06T23:30:24.358Z,101137
2017-05-06T23:32:53.328Z,101140
2017-05-06T23:35:22.255Z,101132
2017-05-06T23:37:51.185Z,101143
2017-05-06T23:40:20.887Z,101146
2017-05-06T23:42:50.571Z,101135
2017-05-06T23:45:19.489Z,101137
2017-05-06T23:47:48.447Z,101132
2017-05-06T23:50:17.387Z,101135
2017-05-06T23:52:47.056Z,101127
2017-05-06T23:55:16.003Z,101131
2017-05-06T23:57:44.935Z,101119
